Newhouse, United Kingdom

6:49 AM GMT on January 17, 2017 (GMT +0000)
Shotts / Gostagert | | Change Station

Elev 820 ft 55.84 °N, 3.86 °W | Updated 7 seconds ago

Overcast
Overcast
46.2 °F
Feels Like 46 °F
N
0.0
Wind Variable Wind from WSW
Gusts 0.0 mph

Today
High -- | Low -- °F
--% Chance of Precip.
Yesterday
High -- | Low -- °F
Precip. -- in
Pressure 30.42 in
Visibility 4.3 miles
Clouds Overcast 1600 ft
Windchill 46 °F
Dew Point 44 °F
Humidity 93%
Rainfall 0.02 in
Snow Depth Not available.
8:33 AM 4:18 PM
Waning Gibbous, 75% visible
METAR EGPF 170620Z AUTO 26003KT 7000 OVC016 09/09 Q1030
Pressure 30.42 in
Visibility 4.3 miles
Clouds Overcast 1600 ft
Windchill 46 °F
Dew Point 44 °F
Humidity 93%
Rainfall 0.02 in
Snow Depth Not available.
8:33 AM 4:18 PM
Waning Gibbous, 75% visible
METAR EGPF 170620Z AUTO 26003KT 7000 OVC016 09/09 Q1030

Get Your Daily Forecast Email!

Thanks for signing up!

Be on the lookout for a verification email in your inbox.

You'll start receiving the daily forecast at 8 AM.

×

10-Day Weather Forecast

×

Almanac

Astronomy

Jan. 17, 2017 Rise Set
Actual Time
Civil Twilight
Nautical Twilight
Astronomical Twilight
Moon
Length of Visible Light
Length of Day
Tomorrow will be .
, % of the Moon is Illuminated

Today's Extremes

Country Highs Country Lows

Community

WunderPhotos

Upload Photos

1,962,540 photos uploaded!

WunderBlog® & News

Nearby

Air Quality

  Air Quality AQ Index Pollutant
Not available.

Snow Depth

Station Depth Elevation

Earthquake Activity

City Distance Mag. Time & Date
Minimum magnitude displayed is 2.5.

Coastal Water Temperatures

Place Temperature

Stations

Nearby Weather Stations

Station Location Temp. Windchill Dew Point Humidity Wind Precip. Elev Updated Type